createdAt,value
2022-10-14T07:03:07.822Z,11.80
2022-10-14T07:05:35.987Z,11.80
2022-10-14T07:08:03.127Z,11.90
2022-10-14T07:10:30.277Z,11.90
2022-10-14T07:12:57.408Z,11.90
2022-10-14T07:15:24.696Z,11.90
2022-10-14T07:17:51.835Z,11.90
2022-10-14T07:20:18.996Z,12.00
2022-10-14T07:22:46.237Z,12.00
2022-10-14T07:25:13.395Z,12.20
2022-10-14T07:27:40.698Z,12.30
2022-10-14T07:30:09.288Z,12.40
2022-10-14T07:32:37.945Z,12.50
2022-10-14T07:35:05.727Z,12.50
2022-10-14T07:37:32.926Z,12.60
2022-10-14T07:40:00.319Z,12.60
2022-10-14T07:42:27.528Z,12.60
2022-10-14T07:44:54.738Z,12.60
2022-10-14T07:47:22.317Z,12.60
2022-10-14T07:49:49.710Z,12.70
2022-10-14T07:52:19.487Z,12.70
2022-10-14T07:54:46.655Z,12.80
2022-10-14T07:57:13.856Z,12.80
2022-10-14T07:59:40.995Z,12.80
2022-10-14T08:02:08.221Z,12.80
2022-10-14T08:04:35.525Z,12.80
2022-10-14T08:07:04.589Z,12.90
2022-10-14T08:09:31.725Z,12.80
2022-10-14T08:11:58.993Z,12.90
2022-10-14T08:14:26.137Z,12.90
2022-10-14T08:16:53.306Z,12.90
2022-10-14T08:19:21.768Z,13.00
2022-10-14T08:21:48.965Z,13.00
2022-10-14T08:24:16.116Z,13.10
2022-10-14T08:26:51.636Z,13.10
2022-10-14T08:29:18.833Z,13.30
2022-10-14T08:31:46.375Z,13.30
2022-10-14T08:34:13.567Z,13.40
2022-10-14T08:36:40.894Z,13.40
2022-10-14T08:42:16.239Z,13.40
2022-10-14T08:44:56.003Z,13.40
2022-10-14T08:47:26.619Z,13.40
2022-10-14T08:50:23.420Z,13.40
2022-10-14T08:53:06.687Z,13.40
2022-10-14T08:55:36.713Z,13.40
2022-10-14T08:58:29.507Z,13.40
2022-10-14T09:00:56.723Z,13.40
2022-10-14T09:03:32.767Z,13.50
2022-10-14T09:06:07.839Z,13.40
2022-10-14T09:08:42.215Z,13.40
2022-10-14T09:11:14.637Z,13.50
2022-10-14T09:13:43.067Z,13.50
2022-10-14T09:16:16.243Z,13.70
2022-10-14T09:18:55.178Z,13.70
2022-10-14T09:21:53.135Z,13.80
2022-10-14T09:24:37.927Z,13.90
2022-10-14T09:27:08.855Z,13.90
2022-10-14T09:30:10.209Z,14.10
2022-10-14T09:32:40.718Z,14.10
2022-10-14T09:35:24.740Z,14.20
2022-10-14T09:37:52.097Z,14.20
2022-10-14T09:40:41.065Z,14.20
2022-10-14T09:43:08.152Z,14.20
2022-10-14T09:46:11.138Z,14.30
2022-10-14T09:48:44.678Z,14.30
2022-10-14T09:51:33.981Z,14.40
2022-10-14T09:54:02.434Z,14.50
2022-10-14T09:56:40.705Z,14.60
2022-10-14T09:59:19.538Z,14.60
2022-10-14T10:01:51.509Z,14.60
2022-10-14T10:04:36.809Z,14.60
2022-10-14T10:07:06.042Z,14.50
2022-10-14T10:09:33.588Z,14.60
2022-10-14T10:12:00.765Z,14.70
2022-10-14T10:14:32.979Z,14.80
2022-10-14T10:17:12.552Z,14.80
2022-10-14T10:20:06.886Z,14.90
2022-10-14T10:22:36.991Z,15.00
2022-10-14T10:25:04.376Z,14.90
2022-10-14T10:27:35.544Z,14.90
2022-10-14T10:30:21.700Z,14.90
2022-10-14T10:33:10.586Z,14.90
2022-10-14T10:35:57.898Z,15.00
2022-10-14T10:38:35.200Z,14.90
2022-10-14T10:41:22.655Z,14.90
2022-10-14T10:44:11.360Z,14.80
2022-10-14T10:46:57.610Z,14.80
2022-10-14T10:49:53.943Z,14.90
2022-10-14T10:52:54.045Z,14.90
2022-10-14T10:55:35.323Z,14.90
2022-10-14T10:58:08.999Z,14.90
2022-10-14T11:00:52.418Z,15.00
2022-10-14T11:03:28.797Z,15.00
2022-10-14T11:06:42.575Z,15.00
2022-10-14T11:09:40.004Z,15.00
2022-10-14T11:12:15.422Z,15.00
2022-10-14T11:14:52.326Z,15.10
2022-10-14T11:18:08.380Z,15.30
2022-10-14T11:20:42.857Z,15.40
2022-10-14T11:23:48.195Z,15.50
2022-10-14T11:26:28.600Z,15.50
2022-10-14T11:28:59.463Z,15.60
2022-10-14T11:31:51.303Z,15.60
2022-10-14T11:34:34.374Z,15.70
2022-10-14T11:37:16.568Z,15.70
2022-10-14T11:40:09.478Z,15.80
2022-10-14T11:43:02.279Z,15.80
2022-10-14T11:45:54.946Z,15.90
2022-10-14T11:48:46.185Z,15.90
2022-10-14T11:51:23.663Z,15.90
2022-10-14T11:54:01.627Z,15.90
2022-10-14T11:56:47.971Z,16.00
2022-10-14T11:59:44.001Z,16.10
2022-10-14T12:02:57.197Z,16.00
2022-10-14T12:05:37.968Z,16.00
2022-10-14T12:08:25.765Z,16.00
2022-10-14T12:10:58.597Z,15.90
2022-10-14T12:13:44.687Z,16.00
2022-10-14T12:16:16.461Z,16.00
2022-10-14T12:18:44.582Z,16.00
2022-10-14T12:21:23.559Z,16.00
2022-10-14T12:23:54.045Z,16.00
2022-10-14T12:26:24.479Z,16.00
2022-10-14T12:28:53.903Z,16.00
2022-10-14T12:31:38.558Z,16.10
2022-10-14T12:34:13.389Z,16.10
2022-10-14T12:36:45.359Z,16.10
2022-10-14T12:39:18.672Z,16.20
2022-10-14T12:41:55.218Z,16.10
2022-10-14T12:44:45.893Z,16.10
2022-10-14T12:47:32.132Z,16.10
2022-10-14T12:50:02.881Z,16.10
2022-10-14T12:52:32.011Z,16.10
2022-10-14T12:55:00.384Z,16.10
2022-10-14T12:57:30.948Z,16.10
2022-10-14T13:00:00.052Z,16.10
2022-10-14T13:02:33.660Z,16.10
2022-10-14T13:05:05.393Z,16.10
2022-10-14T13:07:44.021Z,16.10
2022-10-14T13:10:45.990Z,16.10
2022-10-14T13:13:49.289Z,16.10
2022-10-14T13:16:25.692Z,16.10
2022-10-14T13:18:57.822Z,16.10
2022-10-14T13:21:32.350Z,16.10
2022-10-14T13:24:06.308Z,16.10
2022-10-14T13:26:38.243Z,16.10
2022-10-14T13:29:21.305Z,16.10
2022-10-14T13:32:11.456Z,16.10
2022-10-14T13:34:53.261Z,16.10
2022-10-14T13:37:45.702Z,16.00
2022-10-14T13:40:21.068Z,16.00
2022-10-14T13:42:53.291Z,16.00
2022-10-14T13:45:21.999Z,15.90
2022-10-14T13:47:49.290Z,15.90
2022-10-14T13:50:23.191Z,15.80
2022-10-14T13:52:56.555Z,15.80
2022-10-14T13:55:24.202Z,15.70
2022-10-14T13:58:12.540Z,15.60
2022-10-14T14:00:59.100Z,15.60
2022-10-14T14:03:36.587Z,15.50
2022-10-14T14:06:14.156Z,15.50
2022-10-14T14:08:55.154Z,15.40
2022-10-14T14:11:26.828Z,15.40
2022-10-14T14:14:00.751Z,15.30
2022-10-14T14:16:40.285Z,15.20
2022-10-14T14:19:16.389Z,15.10
2022-10-14T14:21:43.552Z,15.10
2022-10-14T14:24:25.077Z,14.90
2022-10-14T14:26:53.539Z,14.80
2022-10-14T14:29:26.839Z,14.80
2022-10-14T14:32:05.964Z,14.70
2022-10-14T14:34:35.660Z,14.60
2022-10-14T14:37:17.605Z,14.60
2022-10-14T14:39:55.806Z,14.50
2022-10-14T14:42:24.553Z,14.50
2022-10-14T14:44:51.835Z,14.50
2022-10-14T14:47:19.047Z,14.40
2022-10-14T14:49:46.303Z,14.40
2022-10-14T14:52:14.329Z,14.30
2022-10-14T14:54:45.660Z,14.30
2022-10-14T14:57:14.755Z,14.20
2022-10-14T14:59:50.539Z,14.20
2022-10-14T15:02:19.113Z,14.20
2022-10-14T15:04:59.146Z,14.20
2022-10-14T15:07:27.549Z,14.20
2022-10-14T15:10:05.364Z,14.20
2022-10-14T15:12:41.686Z,14.20
2022-10-14T15:15:35.977Z,14.20
2022-10-14T15:18:15.528Z,14.20
2022-10-14T15:20:43.295Z,14.20
2022-10-14T15:23:40.149Z,14.20
2022-10-14T15:26:21.976Z,14.20
2022-10-14T15:29:17.007Z,14.20
2022-10-14T15:32:05.239Z,14.20
2022-10-14T15:34:39.917Z,14.10
2022-10-14T15:37:10.492Z,14.10
2022-10-14T15:39:38.007Z,14.10
2022-10-14T15:42:10.988Z,14.10
2022-10-14T15:44:38.109Z,14.20
2022-10-14T15:47:20.200Z,14.10
2022-10-14T15:49:47.624Z,14.10
2022-10-14T15:52:15.877Z,14.20
2022-10-14T15:54:44.215Z,14.10
2022-10-14T15:57:14.059Z,14.10
2022-10-14T15:59:46.150Z,14.10
2022-10-14T16:02:23.978Z,14.10
2022-10-14T16:05:18.365Z,14.10
2022-10-14T16:07:38.777Z,14.00
2022-10-14T16:10:07.006Z,14.00
2022-10-14T16:12:34.230Z,14.00
2022-10-14T16:15:02.569Z,14.00
2022-10-14T16:17:29.808Z,13.90
2022-10-14T16:19:56.975Z,13.90
2022-10-14T16:22:24.118Z,13.90
2022-10-14T16:24:51.519Z,13.90
2022-10-14T16:27:18.818Z,13.90
2022-10-14T16:29:45.998Z,13.90
2022-10-14T16:32:13.567Z,13.80
2022-10-14T16:34:41.001Z,13.80
2022-10-14T16:37:08.969Z,13.80
2022-10-14T16:39:37.052Z,13.80
2022-10-14T16:42:05.301Z,13.80
2022-10-14T16:44:33.256Z,13.80
2022-10-14T16:47:19.573Z,13.80
2022-10-14T16:49:49.096Z,13.80
2022-10-14T16:52:16.242Z,13.80
2022-10-14T16:54:43.638Z,13.80
2022-10-14T16:57:10.848Z,13.80
2022-10-14T16:59:38.128Z,13.80
2022-10-14T17:02:08.246Z,13.70
2022-10-14T17:04:35.465Z,13.70
2022-10-14T17:07:07.214Z,13.70
2022-10-14T17:09:35.998Z,13.70
2022-10-14T17:12:05.888Z,13.70
2022-10-14T17:14:35.424Z,13.70
2022-10-14T17:17:02.531Z,13.70
2022-10-14T17:19:29.938Z,13.70
2022-10-14T17:21:57.118Z,13.70
2022-10-14T17:24:24.300Z,13.70
2022-10-14T17:26:51.413Z,13.60
2022-10-14T17:29:20.323Z,13.60
2022-10-14T17:31:50.410Z,13.60
2022-10-14T17:34:17.545Z,13.60
2022-10-14T17:36:44.671Z,13.60
2022-10-14T17:39:18.671Z,13.60
2022-10-14T17:41:51.532Z,13.60
2022-10-14T17:44:18.978Z,13.60
2022-10-14T17:46:46.120Z,13.60
2022-10-14T17:49:14.293Z,13.60
2022-10-14T17:51:41.520Z,13.60
2022-10-14T17:54:10.951Z,13.60
2022-10-14T17:56:38.470Z,13.60
2022-10-14T17:59:07.233Z,13.50
2022-10-14T18:01:57.838Z,13.60
2022-10-14T18:04:21.891Z,13.50
2022-10-14T18:06:49.125Z,13.50
2022-10-14T18:09:16.470Z,13.50
2022-10-14T18:14:33.380Z,13.50
2022-10-14T18:17:00.546Z,13.50
2022-10-14T18:19:27.801Z,13.50
2022-10-14T18:21:55.033Z,13.50
2022-10-14T18:24:22.547Z,13.50
2022-10-14T18:26:53.183Z,13.50
2022-10-14T18:29:20.344Z,13.50
2022-10-14T18:31:48.857Z,13.50
2022-10-14T18:34:16.151Z,13.50
2022-10-14T18:36:43.379Z,13.50
2022-10-14T18:39:11.345Z,13.50
2022-10-14T18:41:38.539Z,13.50
2022-10-14T18:44:06.083Z,13.50
2022-10-14T18:46:34.900Z,13.50
2022-10-14T18:49:02.562Z,13.50
2022-10-14T18:51:31.190Z,13.50
2022-10-14T18:53:59.939Z,13.50
2022-10-14T18:56:28.952Z,13.50
2022-10-14T18:59:07.207Z,13.50
2022-10-14T19:01:35.109Z,13.50
2022-10-14T19:04:03.135Z,13.50
2022-10-14T19:06:30.283Z,13.50
2022-10-14T19:08:57.448Z,13.50
2022-10-14T19:11:25.035Z,13.50
2022-10-14T19:13:53.451Z,13.50
2022-10-14T19:16:29.617Z,13.50
2022-10-14T19:19:01.609Z,13.50
2022-10-14T19:21:32.058Z,13.50
2022-10-14T19:24:00.382Z,13.50
2022-10-14T19:26:32.260Z,13.50
2022-10-14T19:29:02.916Z,13.50
2022-10-14T19:31:33.155Z,13.50
2022-10-14T19:34:01.421Z,13.50
2022-10-14T19:36:28.592Z,13.50
2022-10-14T19:38:59.839Z,13.50
2022-10-14T19:41:28.260Z,13.50
2022-10-14T19:43:56.326Z,13.50
2022-10-14T19:46:26.465Z,13.50
2022-10-14T19:48:58.198Z,13.60
2022-10-14T19:51:25.794Z,13.60
2022-10-14T19:53:54.755Z,13.60
2022-10-14T19:56:22.748Z,13.60
2022-10-14T19:58:51.818Z,13.60
2022-10-14T20:01:19.586Z,13.60
2022-10-14T20:03:46.806Z,13.50
2022-10-14T20:06:14.067Z,13.60
2022-10-14T20:08:41.884Z,13.60
2022-10-14T20:11:10.482Z,13.50
2022-10-14T20:13:37.755Z,13.60
2022-10-14T20:16:06.114Z,13.50
2022-10-14T20:18:33.363Z,13.50
2022-10-14T20:21:04.920Z,13.50
2022-10-14T20:23:36.248Z,13.50
2022-10-14T20:26:07.281Z,13.60
2022-10-14T20:28:35.534Z,13.50
2022-10-14T20:31:03.263Z,13.50
2022-10-14T20:33:31.574Z,13.50
2022-10-14T20:36:00.990Z,13.50
2022-10-14T20:38:28.434Z,13.50
2022-10-14T20:40:55.621Z,13.50
2022-10-14T20:43:22.790Z,13.50
2022-10-14T20:45:49.915Z,13.50
2022-10-14T20:48:17.050Z,13.50
2022-10-14T20:50:44.503Z,13.50
2022-10-14T20:53:11.636Z,13.50
2022-10-14T20:55:38.806Z,13.50
2022-10-14T20:58:05.989Z,13.50
2022-10-14T21:00:33.167Z,13.50
2022-10-14T21:03:00.510Z,13.50
2022-10-14T21:05:27.707Z,13.50
2022-10-14T21:07:54.896Z,13.50
2022-10-14T21:10:22.109Z,13.50
2022-10-14T21:12:49.259Z,13.50
2022-10-14T21:15:16.500Z,13.50
2022-10-14T21:17:49.893Z,13.50
2022-10-14T21:20:17.125Z,13.40
2022-10-14T21:22:44.265Z,13.40
2022-10-14T21:25:11.473Z,13.40
2022-10-14T21:27:38.684Z,13.40
2022-10-14T21:30:06.519Z,13.40
2022-10-14T21:32:33.687Z,13.40
2022-10-14T21:35:00.838Z,13.40
2022-10-14T21:37:28.008Z,13.40
2022-10-14T21:39:55.141Z,13.40
2022-10-14T21:42:22.717Z,13.40
2022-10-14T21:44:50.088Z,13.40
2022-10-14T21:47:17.281Z,13.40
2022-10-14T21:49:44.837Z,13.40
2022-10-14T21:52:12.060Z,13.50
2022-10-14T21:54:39.211Z,13.40
2022-10-14T21:57:06.395Z,13.50
2022-10-14T21:59:33.603Z,13.50
2022-10-14T22:02:00.802Z,13.50
2022-10-14T22:04:28.038Z,13.40
2022-10-14T22:06:55.271Z,13.50
2022-10-14T22:09:22.553Z,13.40
2022-10-14T22:11:50.464Z,13.40
2022-10-14T22:14:17.665Z,13.40
2022-10-14T22:16:45.515Z,13.40
2022-10-14T22:19:12.675Z,13.40
2022-10-14T22:21:41.261Z,13.30
2022-10-14T22:24:08.999Z,13.30
2022-10-14T22:26:37.503Z,13.30
2022-10-14T22:29:12.285Z,13.30
2022-10-14T22:31:39.463Z,13.30
2022-10-14T22:34:07.127Z,13.20
2022-10-14T22:36:34.627Z,13.20
2022-10-14T22:39:03.675Z,13.20
2022-10-14T22:41:35.293Z,13.20
2022-10-14T22:44:03.814Z,13.20
2022-10-14T22:46:32.033Z,13.20
2022-10-14T22:49:00.642Z,13.10
2022-10-14T22:51:33.019Z,13.10
2022-10-14T22:54:00.201Z,13.10
2022-10-14T22:56:28.386Z,13.10
2022-10-14T22:59:00.247Z,13.00
2022-10-14T23:01:28.048Z,13.00
